Welcome to Trans World Virtual Airlines!

Welcome TWVA's Newest Pilot:

TWA2313 Bryan Heald

Not a Trans World pilot yet?
Apply Now!




Sign-in with your pilot id or email, or register

Flight TWA3881-A

  • Submitted By: Austin Hill
  • Departure Airport: JFK Airport (KJFK)
  • Arrival Airport: Kansas City International Airport (KMCI)
  • Aircraft: E170 (N173TE)
  • Flight Time: 03.04
  • Date Submitted: 09/16/2018
  • Route: JFK FJC SEG EWC MFD FDY BVT UIN ANX
  • Status: Accepted
Flight Details
Gross Revenue:
(64 load / $ 450.00 per unit
$ 28, 800.00
Fuel Cost:
(9520 fuel used @ 0.8 / unit)
$ 7, 616.00

Additional Log Information:

View Log

FS[15:09] Aircraft Title - Embraer 170 TWA
FS[15:09] Aircraft Model - E-170
FS[15:09] Flight Number TWA3881-A
FS[15:09] Departure KJFK
FS[15:09] Destination KMCI
FS[15:09] Boarding
FS[15:20] Pushing Back
FS[15:28] Taxiing to Runway
FS[15:35] Taking Off
FS[15:35] Taking Off
FS[15:35] 149kts
FS[15:35] pitch angle 5 degrees
FS[15:35] 14923 (lbs) of fuel onboard
FS[15:36] Climbing
FS[15:58] TOC Reached
FS[15:58] Cruise 36000
FS[17:35] TOD Reached
FS[17:35] Descending
FS[17:51] On Approach
FS[18:01] Landing Rate -172fpm
FS[18:01] 6495 (lbs) of fuel onboard
FS[18:01] pitch angle 4 degrees
FS[18:01] Taxiing to Gate
FS[18:07] Arrived
FS[18:14] Max Sim Rate: 1x
FS[18:14] kACARS_Free Version 1.0.1.1

Comments

Commenter Comment
Austin Hill KJFK 161509Z 22004KT 10SM FEW009 SCT020 23/21 A3023 // KMCI 161729Z VRB05KT 10SM FEW090 SCT170 28/20 A3008

Route Map